createdAt,value
2018-07-17T00:00:31.892Z,20.50
2018-07-17T00:03:00.253Z,20.40
2018-07-17T00:05:28.632Z,20.40
2018-07-17T00:07:57.005Z,20.20
2018-07-17T00:10:25.348Z,20.10
2018-07-17T00:12:53.835Z,20.10
2018-07-17T00:15:22.142Z,20.10
2018-07-17T00:17:50.537Z,20.10
2018-07-17T00:20:18.878Z,20.10
2018-07-17T00:22:47.257Z,20.10
2018-07-17T00:25:15.609Z,20.00
2018-07-17T00:27:43.979Z,19.90
2018-07-17T00:30:12.361Z,19.80
2018-07-17T00:32:40.760Z,19.90
2018-07-17T00:35:09.114Z,20.00
2018-07-17T00:37:37.493Z,20.00
2018-07-17T00:40:05.872Z,20.00
2018-07-17T00:42:34.233Z,19.90
2018-07-17T00:45:02.572Z,19.90
2018-07-17T00:47:31.109Z,19.80
2018-07-17T00:49:59.466Z,19.80
2018-07-17T00:52:27.821Z,19.80
2018-07-17T00:54:56.174Z,19.70
2018-07-17T00:57:24.581Z,19.60
2018-07-17T00:59:52.945Z,19.60
2018-07-17T01:02:26.697Z,19.60
2018-07-17T01:05:00.365Z,19.60
2018-07-17T01:07:34.225Z,19.70
2018-07-17T01:10:07.862Z,19.60
2018-07-17T01:12:35.469Z,19.50
2018-07-17T01:15:09.425Z,19.50
2018-07-17T01:17:37.851Z,19.40
2018-07-17T01:20:06.453Z,19.40
2018-07-17T01:22:34.850Z,19.30
2018-07-17T01:25:03.299Z,19.30
2018-07-17T01:27:31.678Z,19.30
2018-07-17T01:30:00.122Z,19.30
2018-07-17T01:32:28.486Z,19.20
2018-07-17T01:34:56.893Z,19.10
2018-07-17T01:37:25.258Z,19.00
2018-07-17T01:39:53.652Z,19.00
2018-07-17T01:42:22.021Z,19.00
2018-07-17T01:44:50.401Z,19.00
2018-07-17T01:47:18.802Z,18.90
2018-07-17T01:49:47.186Z,18.80
2018-07-17T01:52:15.593Z,18.80
2018-07-17T01:54:44.005Z,18.80
2018-07-17T01:57:12.433Z,18.80
2018-07-17T01:59:40.809Z,18.80
2018-07-17T02:02:09.206Z,18.60
2018-07-17T02:04:37.589Z,18.60
2018-07-17T02:07:05.966Z,18.60
2018-07-17T02:09:34.354Z,18.50
2018-07-17T02:12:02.762Z,18.50
2018-07-17T02:14:31.158Z,18.60
2018-07-17T02:16:59.526Z,18.50
2018-07-17T02:19:27.914Z,18.50
2018-07-17T02:21:56.296Z,18.50
2018-07-17T02:24:24.662Z,18.40
2018-07-17T02:26:53.029Z,18.30
2018-07-17T02:29:21.410Z,18.30
2018-07-17T02:31:49.771Z,18.30
2018-07-17T02:34:18.138Z,18.20
2018-07-17T02:36:46.502Z,18.20
2018-07-17T02:39:14.902Z,18.10
2018-07-17T02:41:43.286Z,18.00
2018-07-17T02:46:39.773Z,18.10
2018-07-17T02:49:08.150Z,18.00
2018-07-17T02:51:36.522Z,18.00
2018-07-17T02:54:05.161Z,18.10
2018-07-17T02:56:33.533Z,18.10
2018-07-17T02:59:01.897Z,18.10
2018-07-17T03:01:30.242Z,18.10
2018-07-17T03:03:58.646Z,18.20
2018-07-17T03:06:27.006Z,18.30
2018-07-17T03:08:55.588Z,18.40
2018-07-17T03:11:23.934Z,18.40
2018-07-17T03:13:52.355Z,18.40
2018-07-17T03:16:20.700Z,18.50
2018-07-17T03:18:49.096Z,18.40
2018-07-17T03:21:17.442Z,18.50
2018-07-17T03:23:45.817Z,18.50
2018-07-17T03:26:14.197Z,18.50
2018-07-17T03:28:42.545Z,18.50
2018-07-17T03:31:10.917Z,18.50
2018-07-17T03:33:39.273Z,18.50
2018-07-17T03:36:07.634Z,18.50
2018-07-17T03:38:36.331Z,18.50
2018-07-17T03:41:04.733Z,18.50
2018-07-17T03:43:33.137Z,18.50
2018-07-17T03:46:01.514Z,18.50
2018-07-17T03:48:29.862Z,18.60
2018-07-17T03:50:58.245Z,18.70
2018-07-17T03:53:26.754Z,18.70
2018-07-17T03:55:55.279Z,18.70
2018-07-17T03:58:23.654Z,18.70
2018-07-17T04:00:52.025Z,18.70
2018-07-17T04:03:20.711Z,18.60
2018-07-17T04:05:49.077Z,18.50
2018-07-17T04:08:17.417Z,18.50
2018-07-17T04:10:45.785Z,18.50
2018-07-17T04:13:14.191Z,18.40
2018-07-17T04:15:42.562Z,18.40
2018-07-17T04:18:10.909Z,18.30
2018-07-17T04:20:39.305Z,18.30
2018-07-17T04:23:07.646Z,18.40
2018-07-17T04:25:36.005Z,18.40
2018-07-17T04:28:04.363Z,18.50
2018-07-17T04:30:32.721Z,18.50
2018-07-17T04:33:01.089Z,18.50
2018-07-17T04:35:30.045Z,18.50
2018-07-17T04:37:58.430Z,18.30
2018-07-17T04:40:26.814Z,18.30
2018-07-17T04:42:55.210Z,18.30
2018-07-17T04:45:23.593Z,18.40
2018-07-17T04:47:51.953Z,18.50
2018-07-17T04:50:20.390Z,18.50
2018-07-17T04:52:48.757Z,18.50
2018-07-17T04:55:17.129Z,18.50
2018-07-17T04:57:45.527Z,18.60
2018-07-17T05:00:13.894Z,18.70
2018-07-17T05:02:42.237Z,18.70
2018-07-17T05:05:10.635Z,18.70
2018-07-17T05:07:38.993Z,18.80
2018-07-17T05:10:07.438Z,18.90
2018-07-17T05:12:35.783Z,19.00
2018-07-17T05:15:04.318Z,19.10
2018-07-17T05:17:32.701Z,19.10
2018-07-17T05:20:01.093Z,19.10
2018-07-17T05:22:29.489Z,19.00
2018-07-17T05:24:57.877Z,19.00
2018-07-17T05:27:26.221Z,19.10
2018-07-17T05:29:54.573Z,19.20
2018-07-17T05:32:22.977Z,19.20
2018-07-17T05:34:51.433Z,19.20
2018-07-17T05:37:19.814Z,19.40
2018-07-17T05:39:48.178Z,19.50
2018-07-17T05:42:16.537Z,19.70
2018-07-17T05:44:44.901Z,19.80
2018-07-17T05:47:13.709Z,20.10
2018-07-17T05:49:42.053Z,20.20
2018-07-17T05:52:10.467Z,20.40
2018-07-17T05:54:38.833Z,20.60
2018-07-17T05:57:07.237Z,20.70
2018-07-17T05:59:35.577Z,21.00
2018-07-17T06:02:04.098Z,21.20
2018-07-17T06:04:32.440Z,21.50
2018-07-17T06:07:00.838Z,21.60
2018-07-17T06:09:29.210Z,21.90
2018-07-17T06:11:57.598Z,22.10
2018-07-17T06:14:26.025Z,22.40
2018-07-17T06:16:54.405Z,22.60
2018-07-17T06:19:22.747Z,22.60
2018-07-17T06:21:51.142Z,22.90
2018-07-17T06:24:19.626Z,22.90
2018-07-17T06:26:48.089Z,22.90
2018-07-17T06:29:16.438Z,22.80
2018-07-17T06:31:44.814Z,22.90
2018-07-17T06:34:13.178Z,23.10
2018-07-17T06:36:41.564Z,23.10
2018-07-17T06:39:10.257Z,23.40
2018-07-17T06:41:38.637Z,23.60
2018-07-17T06:44:06.981Z,23.90
2018-07-17T06:46:35.357Z,24.10
2018-07-17T06:49:03.702Z,24.20
2018-07-17T06:51:32.134Z,24.30
2018-07-17T06:54:00.493Z,24.60
2018-07-17T06:56:28.936Z,25.00
2018-07-17T06:58:57.285Z,25.20
2018-07-17T07:01:25.669Z,25.50
2018-07-17T07:03:54.038Z,25.50
2018-07-17T07:06:22.419Z,25.80
2018-07-17T07:08:50.761Z,25.60
2018-07-17T07:11:19.131Z,25.50
2018-07-17T07:13:47.494Z,25.40
2018-07-17T07:16:15.872Z,25.60
2018-07-17T07:18:44.241Z,25.70
2018-07-17T07:21:12.614Z,25.40
2018-07-17T07:23:40.985Z,25.40
2018-07-17T07:26:09.362Z,25.40
2018-07-17T07:28:38.052Z,25.60
2018-07-17T07:31:06.665Z,25.70
2018-07-17T07:33:34.901Z,25.70
2018-07-17T07:36:03.288Z,26.10
2018-07-17T07:38:31.737Z,26.30
2018-07-17T07:41:00.093Z,26.40
2018-07-17T07:43:28.466Z,26.40
2018-07-17T07:45:56.986Z,25.80
2018-07-17T07:48:25.357Z,25.70
2018-07-17T07:50:53.819Z,25.70
2018-07-17T07:53:22.181Z,25.50
2018-07-17T07:55:50.551Z,25.30
2018-07-17T07:58:18.924Z,25.30
2018-07-17T08:00:47.410Z,24.90
2018-07-17T08:03:15.781Z,24.90
2018-07-17T08:05:44.155Z,24.80
2018-07-17T08:08:12.554Z,24.80
2018-07-17T08:10:40.913Z,24.80
2018-07-17T08:13:09.301Z,24.90
2018-07-17T08:15:37.645Z,24.80
2018-07-17T08:18:06.065Z,24.80
2018-07-17T08:20:35.272Z,24.60
2018-07-17T08:23:03.705Z,24.70
2018-07-17T08:25:32.051Z,24.60
2018-07-17T08:28:00.441Z,24.50
2018-07-17T08:30:28.785Z,24.40
2018-07-17T08:32:57.172Z,24.40
2018-07-17T08:35:25.525Z,24.60
2018-07-17T08:37:53.886Z,24.80
2018-07-17T08:40:22.258Z,24.70
2018-07-17T08:42:50.644Z,24.70
2018-07-17T08:45:19.002Z,24.80
2018-07-17T08:47:47.389Z,25.00
2018-07-17T08:50:15.761Z,24.90
2018-07-17T08:52:44.332Z,24.90
2018-07-17T08:55:12.757Z,24.80
2018-07-17T08:57:41.172Z,24.70
2018-07-17T09:00:09.553Z,24.50
2018-07-17T09:02:37.938Z,24.60
2018-07-17T09:05:06.337Z,24.80
2018-07-17T09:07:34.761Z,25.10
2018-07-17T09:10:03.232Z,25.50
2018-07-17T09:12:31.618Z,25.70
2018-07-17T09:15:00.001Z,25.80
2018-07-17T09:17:28.482Z,26.20
2018-07-17T09:19:56.976Z,26.80
2018-07-17T09:22:25.597Z,26.70
2018-07-17T09:24:54.081Z,26.60
2018-07-17T09:27:22.498Z,26.60
2018-07-17T09:29:50.918Z,26.70
2018-07-17T09:32:19.549Z,26.70
2018-07-17T09:34:47.941Z,26.70
2018-07-17T09:37:16.362Z,26.70
2018-07-17T09:39:44.742Z,27.00
2018-07-17T09:42:13.137Z,26.90
2018-07-17T09:44:41.594Z,26.80
2018-07-17T09:47:09.961Z,26.70
2018-07-17T09:49:38.485Z,26.80
2018-07-17T09:52:07.253Z,26.70
2018-07-17T09:54:35.653Z,26.50
2018-07-17T09:57:04.065Z,26.70
2018-07-17T09:59:32.493Z,26.90
2018-07-17T10:02:06.198Z,27.00
2018-07-17T10:04:34.582Z,27.00
2018-07-17T10:07:02.949Z,27.40
2018-07-17T10:09:31.355Z,27.40
2018-07-17T10:11:59.721Z,27.20
2018-07-17T10:14:28.178Z,27.20
2018-07-17T10:16:56.522Z,27.40
2018-07-17T10:19:24.914Z,27.60
2018-07-17T10:21:53.321Z,27.70
2018-07-17T10:24:21.750Z,27.80
2018-07-17T10:26:50.132Z,27.80
2018-07-17T10:29:18.522Z,27.80
2018-07-17T10:31:46.889Z,27.80
2018-07-17T10:34:15.288Z,27.90
2018-07-17T10:36:43.957Z,28.00
2018-07-17T10:39:12.490Z,28.40
2018-07-17T10:41:40.861Z,28.40
2018-07-17T10:44:09.805Z,28.60
2018-07-17T10:46:38.922Z,28.60
2018-07-17T10:49:07.347Z,28.50
2018-07-17T10:51:35.729Z,28.40
2018-07-17T10:54:04.464Z,28.60
2018-07-17T10:56:32.850Z,28.50
2018-07-17T10:59:01.252Z,28.50
2018-07-17T11:01:29.617Z,28.50
2018-07-17T11:03:58.030Z,28.60
2018-07-17T11:06:26.398Z,29.00
2018-07-17T11:08:54.777Z,29.20
2018-07-17T11:11:23.169Z,29.30
2018-07-17T11:13:51.574Z,29.30
2018-07-17T11:16:19.950Z,29.40
2018-07-17T11:18:48.549Z,29.50
2018-07-17T11:21:17.085Z,29.20
2018-07-17T11:23:45.817Z,29.20
2018-07-17T11:26:14.178Z,29.30
2018-07-17T11:28:42.565Z,29.20
2018-07-17T11:31:10.947Z,29.30
2018-07-17T11:33:39.749Z,29.50
2018-07-17T11:36:08.130Z,29.50
2018-07-17T11:38:36.615Z,29.70
2018-07-17T11:41:04.941Z,29.90
2018-07-17T11:43:33.321Z,29.90
2018-07-17T11:46:01.709Z,29.80
2018-07-17T11:48:30.098Z,29.90
2018-07-17T11:50:58.477Z,29.80
2018-07-17T11:53:26.951Z,29.70
2018-07-17T11:55:55.265Z,29.80
2018-07-17T11:58:23.626Z,29.80
2018-07-17T12:00:52.034Z,30.00
2018-07-17T12:03:20.682Z,30.10
2018-07-17T12:05:49.115Z,30.20
2018-07-17T12:08:17.436Z,30.20
2018-07-17T12:10:45.825Z,30.40
2018-07-17T12:13:14.162Z,30.50
2018-07-17T12:15:43.001Z,30.70
2018-07-17T12:18:11.479Z,30.40
2018-07-17T12:20:40.033Z,30.40
2018-07-17T12:23:08.225Z,30.30
2018-07-17T12:25:36.592Z,30.20
2018-07-17T12:28:05.016Z,30.10
2018-07-17T12:30:33.338Z,30.10
2018-07-17T12:33:01.686Z,30.00
2018-07-17T12:35:30.047Z,29.90
2018-07-17T12:37:58.510Z,29.90
2018-07-17T12:40:26.892Z,29.90
2018-07-17T12:42:55.490Z,29.90
2018-07-17T12:45:23.850Z,30.00
2018-07-17T12:47:52.197Z,30.10
2018-07-17T12:50:20.565Z,30.10
2018-07-17T12:52:48.946Z,30.10
2018-07-17T12:55:17.345Z,30.00
2018-07-17T12:57:45.714Z,29.90
2018-07-17T13:00:14.114Z,30.10
2018-07-17T13:02:42.516Z,30.00
2018-07-17T13:05:10.846Z,29.90
2018-07-17T13:07:39.226Z,30.00
2018-07-17T13:10:07.710Z,30.00
2018-07-17T13:12:36.049Z,30.10
2018-07-17T13:15:04.482Z,30.20
2018-07-17T13:17:32.936Z,30.00
2018-07-17T13:20:01.229Z,29.80
2018-07-17T13:22:29.655Z,29.60
2018-07-17T13:24:57.997Z,29.60
2018-07-17T13:27:26.340Z,29.50
2018-07-17T13:29:54.722Z,29.70
2018-07-17T13:32:23.091Z,29.70
2018-07-17T13:34:51.458Z,29.50
2018-07-17T13:37:19.842Z,29.40
2018-07-17T13:39:48.237Z,29.20
2018-07-17T13:42:16.782Z,29.20
2018-07-17T13:44:45.467Z,29.30
2018-07-17T13:47:13.787Z,29.10
2018-07-17T13:49:42.154Z,29.10
2018-07-17T13:52:10.551Z,29.30
2018-07-17T13:54:38.897Z,29.30
2018-07-17T13:57:07.434Z,29.30
2018-07-17T13:59:35.773Z,29.30
2018-07-17T14:02:04.721Z,29.40
2018-07-17T14:04:33.074Z,29.60
2018-07-17T14:07:01.545Z,29.60
2018-07-17T14:09:29.801Z,29.60
2018-07-17T14:11:58.189Z,29.50
2018-07-17T14:14:26.665Z,29.40
2018-07-17T14:16:55.026Z,29.50
2018-07-17T14:19:23.372Z,29.30
2018-07-17T14:21:51.766Z,29.40
2018-07-17T14:24:20.145Z,29.50
2018-07-17T14:26:48.655Z,29.60
2018-07-17T14:29:17.114Z,29.60
2018-07-17T14:31:45.473Z,29.60
2018-07-17T14:34:13.929Z,29.50
2018-07-17T14:36:42.333Z,29.50
2018-07-17T14:41:41.242Z,29.50
2018-07-17T14:44:09.626Z,29.40
2018-07-17T14:46:38.146Z,29.30
2018-07-17T14:49:06.494Z,29.20
2018-07-17T14:51:34.878Z,29.20
2018-07-17T14:54:03.250Z,29.30
2018-07-17T14:56:31.713Z,29.10
2018-07-17T14:59:00.094Z,29.00
2018-07-17T15:01:28.478Z,29.00
2018-07-17T15:03:56.918Z,28.90
2018-07-17T15:08:53.362Z,28.80
2018-07-17T15:11:21.785Z,28.80
2018-07-17T15:13:50.154Z,28.80
2018-07-17T15:16:18.653Z,29.00
2018-07-17T15:18:47.073Z,29.20
2018-07-17T15:21:15.457Z,29.30
2018-07-17T15:23:43.883Z,29.30
2018-07-17T15:26:12.254Z,29.20
2018-07-17T15:28:40.629Z,29.30
2018-07-17T15:31:09.044Z,29.20
2018-07-17T15:33:37.409Z,29.20
2018-07-17T15:36:11.398Z,29.20
2018-07-17T15:38:39.805Z,29.20
2018-07-17T15:41:08.272Z,29.30
2018-07-17T15:43:36.881Z,29.30
2018-07-17T15:46:05.413Z,29.40
2018-07-17T15:48:33.781Z,29.30
2018-07-17T15:51:02.226Z,29.30
2018-07-17T15:53:30.633Z,29.30
2018-07-17T15:55:59.037Z,29.30
2018-07-17T15:58:27.422Z,29.30
2018-07-17T16:00:55.794Z,29.40
2018-07-17T16:03:24.193Z,29.50
2018-07-17T16:05:52.590Z,29.50
2018-07-17T16:08:20.981Z,29.40
2018-07-17T16:10:49.366Z,29.30
2018-07-17T16:13:18.887Z,29.20
2018-07-17T16:15:47.218Z,29.20
2018-07-17T16:18:15.598Z,29.20
2018-07-17T16:20:44.313Z,29.20
2018-07-17T16:23:16.901Z,29.20
2018-07-17T16:25:45.729Z,29.30
2018-07-17T16:28:14.157Z,29.30
2018-07-17T16:30:42.590Z,29.00
2018-07-17T16:33:10.977Z,28.90
2018-07-17T16:35:39.337Z,28.70
2018-07-17T16:38:07.734Z,28.70
2018-07-17T16:40:36.101Z,28.70
2018-07-17T16:43:04.493Z,28.70
2018-07-17T16:45:32.871Z,28.70
2018-07-17T16:48:01.320Z,28.70
2018-07-17T16:50:29.638Z,28.50
2018-07-17T16:52:58.042Z,28.50
2018-07-17T16:55:26.634Z,28.40
2018-07-17T16:57:55.562Z,28.50
2018-07-17T17:00:23.933Z,28.50
2018-07-17T17:02:52.314Z,28.40
2018-07-17T17:05:20.758Z,28.50
2018-07-17T17:07:49.154Z,28.40
2018-07-17T17:10:17.537Z,28.30
2018-07-17T17:12:45.923Z,28.20
2018-07-17T17:15:14.293Z,28.20
2018-07-17T17:17:42.670Z,28.10
2018-07-17T17:20:11.030Z,28.10
2018-07-17T17:22:39.553Z,28.00
2018-07-17T17:25:07.921Z,27.90
2018-07-17T17:27:36.300Z,27.90
2018-07-17T17:30:04.717Z,27.80
2018-07-17T17:32:33.429Z,27.70
2018-07-17T17:35:01.814Z,27.50
2018-07-17T17:37:30.194Z,27.40
2018-07-17T17:39:58.595Z,27.30
2018-07-17T17:42:26.989Z,27.30
2018-07-17T17:44:55.358Z,27.10
2018-07-17T17:47:23.742Z,26.90
2018-07-17T17:49:52.129Z,26.40
2018-07-17T17:52:20.538Z,25.80
2018-07-17T17:54:48.897Z,25.10
2018-07-17T17:57:17.318Z,24.60
2018-07-17T17:59:45.681Z,24.10
2018-07-17T18:02:14.061Z,23.70
2018-07-17T18:04:42.452Z,23.40
2018-07-17T18:07:10.813Z,23.20
2018-07-17T18:09:39.197Z,23.10
2018-07-17T18:12:07.579Z,23.00
2018-07-17T18:14:35.969Z,22.60
2018-07-17T18:17:04.344Z,22.40
2018-07-17T18:19:33.839Z,22.20
2018-07-17T18:22:02.176Z,21.90
2018-07-17T18:24:30.586Z,21.60
2018-07-17T18:26:59.076Z,21.30
2018-07-17T18:29:27.741Z,21.30
2018-07-17T18:31:56.173Z,21.10
2018-07-17T18:34:25.537Z,21.10
2018-07-17T18:36:54.861Z,21.00
2018-07-17T18:44:23.519Z,21.20
2018-07-17T18:46:53.485Z,21.20
2018-07-17T18:49:23.755Z,21.30
2018-07-17T18:51:52.988Z,21.20
2018-07-17T18:54:21.525Z,21.30
2018-07-17T18:56:50.161Z,21.30
2018-07-17T18:59:18.521Z,21.20
2018-07-17T19:01:46.906Z,21.20
2018-07-17T19:04:15.583Z,21.30
2018-07-17T19:06:45.127Z,21.40
2018-07-17T19:09:14.109Z,21.30
2018-07-17T19:11:42.870Z,21.10
2018-07-17T19:14:11.257Z,21.10
2018-07-17T19:16:39.655Z,20.90
2018-07-17T19:19:08.154Z,20.90
2018-07-17T19:21:36.509Z,20.90
2018-07-17T19:24:05.310Z,21.00
2018-07-17T19:26:34.638Z,21.00
2018-07-17T19:29:03.856Z,21.10
2018-07-17T19:34:01.032Z,21.10
2018-07-17T19:36:29.413Z,21.00
2018-07-17T19:38:57.857Z,21.00
2018-07-17T19:41:26.341Z,20.90
2018-07-17T19:43:54.821Z,20.80
2018-07-17T19:46:23.961Z,20.70
2018-07-17T19:48:52.326Z,20.70
2018-07-17T19:51:20.813Z,20.80
2018-07-17T19:53:49.276Z,20.60
2018-07-17T19:56:17.662Z,20.80
2018-07-17T20:01:14.698Z,20.70
2018-07-17T20:03:43.641Z,20.60
2018-07-17T20:06:12.386Z,20.60
2018-07-17T20:08:41.384Z,20.70
2018-07-17T20:11:09.995Z,20.80
2018-07-17T20:13:38.384Z,20.80
2018-07-17T20:16:06.819Z,20.70
2018-07-17T20:18:35.569Z,20.70
2018-07-17T20:21:04.446Z,20.80
2018-07-17T20:23:33.543Z,20.90
2018-07-17T20:26:02.311Z,20.90
2018-07-17T20:28:31.508Z,20.90
2018-07-17T20:31:01.110Z,20.80
2018-07-17T20:33:29.554Z,20.70
2018-07-17T20:35:57.941Z,20.40
2018-07-17T20:38:26.386Z,20.30
2018-07-17T20:40:55.356Z,20.30
2018-07-17T20:43:25.201Z,20.30
2018-07-17T20:45:55.318Z,20.20
2018-07-17T20:48:24.308Z,20.20
2018-07-17T20:50:53.750Z,20.20
2018-07-17T20:53:23.787Z,20.20
2018-07-17T20:55:53.347Z,20.00
2018-07-17T20:58:23.337Z,20.00
2018-07-17T21:00:52.616Z,20.10
2018-07-17T21:03:23.217Z,20.10
2018-07-17T21:05:51.713Z,20.10
2018-07-17T21:08:20.077Z,20.10
2018-07-17T21:10:48.453Z,20.00
2018-07-17T21:13:17.577Z,20.00
2018-07-17T21:15:45.893Z,20.00
2018-07-17T21:18:14.702Z,20.10
2018-07-17T21:20:43.826Z,20.10
2018-07-17T21:23:12.561Z,20.10
2018-07-17T21:25:41.487Z,20.20
2018-07-17T21:28:09.925Z,20.20
2018-07-17T21:30:38.366Z,20.20
2018-07-17T21:33:06.730Z,20.10
2018-07-17T21:35:35.504Z,20.10
2018-07-17T21:38:04.633Z,20.10
2018-07-17T21:40:33.670Z,20.00
2018-07-17T21:43:02.046Z,20.10
2018-07-17T21:45:30.454Z,20.00
2018-07-17T21:47:58.813Z,20.00
2018-07-17T21:50:27.193Z,19.90
2018-07-17T21:52:55.906Z,19.90
2018-07-17T21:55:25.429Z,19.90
2018-07-17T21:57:54.617Z,19.80
2018-07-17T22:00:24.114Z,19.80
2018-07-17T22:02:54.287Z,19.80
2018-07-17T22:05:22.669Z,19.70
2018-07-17T22:07:52.149Z,19.60
2018-07-17T22:10:20.590Z,19.60
2018-07-17T22:12:49.126Z,19.60
2018-07-17T22:15:17.695Z,19.50
2018-07-17T22:17:46.029Z,19.40
2018-07-17T22:20:14.427Z,19.50
2018-07-17T22:22:42.782Z,19.40
2018-07-17T22:25:11.185Z,19.40
2018-07-17T22:27:39.562Z,19.30
2018-07-17T22:30:07.966Z,19.30
2018-07-17T22:32:36.324Z,19.20
2018-07-17T22:35:04.738Z,19.10
2018-07-17T22:37:33.113Z,19.00
2018-07-17T22:40:01.478Z,19.00
2018-07-17T22:42:29.853Z,19.00
2018-07-17T22:44:58.218Z,18.90
2018-07-17T22:47:26.702Z,18.90
2018-07-17T22:49:55.065Z,18.90
2018-07-17T22:52:23.450Z,18.90
2018-07-17T22:54:51.805Z,18.90
2018-07-17T22:57:20.202Z,18.80
2018-07-17T22:59:48.566Z,18.80
2018-07-17T23:02:16.978Z,18.80
2018-07-17T23:04:45.378Z,18.70
2018-07-17T23:07:13.766Z,18.60
2018-07-17T23:09:42.122Z,18.60
2018-07-17T23:12:10.631Z,18.50
2018-07-17T23:14:38.937Z,18.40
2018-07-17T23:17:07.331Z,18.40
2018-07-17T23:19:35.685Z,18.40
2018-07-17T23:22:04.081Z,18.30
2018-07-17T23:24:32.461Z,18.30
2018-07-17T23:27:00.833Z,18.20
2018-07-17T23:29:29.185Z,18.20
2018-07-17T23:31:57.553Z,18.20
2018-07-17T23:34:25.925Z,18.20
2018-07-17T23:36:54.305Z,18.10
2018-07-17T23:39:22.673Z,17.80
2018-07-17T23:41:51.051Z,17.60
2018-07-17T23:44:19.400Z,17.50
2018-07-17T23:46:47.786Z,17.30
2018-07-17T23:49:21.521Z,17.20
2018-07-17T23:51:49.925Z,17.00
2018-07-17T23:54:18.361Z,16.90
2018-07-17T23:56:46.766Z,16.90
2018-07-17T23:59:15.121Z,16.90
